Saint-Honore-De-Temiscouata, Canada
Current Conditions -  °F | °C
As of 3:53 AM on Friday 28 Nov 2014 (Local Time) from KFVE Reporting Station
Clear Clear  
Wind Chill: -5°   Ceiling: Unl
Heat Index:   Visibility: 10mi
Dew Point:   Wind: 7mph
Humidity: 92%   Direction: 340°NNW
Pressure: 29.97"   Gusts: NA
Location:  47.72°N, 69.13°W
Report Text: KFVE 280853Z AUTO 34006KT 10SM CLR M14/M15 A2997 RMK AO2 SLP167 T11391150 58000
Loading
Personal Weather Stations






























Interactive Weather Map New forecast layout! Learn more

10-Day Weather Forecast

Advertisements
Track Severe Weather on mobile